This is the latest recevied weather packets stored in our database for station/object N0MPM-4. If no packets are shown the sender has not sent any weather packets the latest 10 day(s).
| Time | Temp. | Humidity | Pressure | Rain* | Wind** | Luminosity | Snow |
|---|---|---|---|---|---|---|---|
| 1788029265 | 20.56° C | 69% | 1014.1 hPa | 1.02 mm | - | - | - |
| 1788029147 | 20.56° C | 71% | 1014 hPa | 0.76 mm | - | - | - |
| 1788028965 | 20.56° C | 72% | 1014.2 hPa | 0.51 mm | - | - | - |
| 1788028787 | 20.56° C | 72% | 1014.4 hPa | 0 mm | - | - | - |
| 1788028665 | 20.56° C | 73% | 1014.3 hPa | 0 mm | - | - | - |
| 1788028427 | 20.56° C | 74% | 1014.4 hPa | 0 mm | - | - | - |
| 1788028365 | 20.56° C | 74% | 1014.4 hPa | 0 mm | - | - | - |
| 1788028299 | 20.56° C | 72% | 1014.4 hPa | 0 mm | - | - | - |
| 1788028065 | 20.56° C | 72% | 1014.4 hPa | 0 mm | - | - | - |
| 1788027903 | 20.56° C | 73% | 1014.4 hPa | 0 mm | - | - | - |
| 1788027765 | 20.56° C | 73% | 1014.4 hPa | 0 mm | - | - | - |
| 1788027707 | 20.56° C | 73% | 1014.4 hPa | 0 mm | - | - | - |
| 1788027549 | 20.56° C | 73% | 1014.2 hPa | 0 mm | - | - | - |
| 1788027465 | 20.56° C | 74% | 1014.3 hPa | 0 mm | - | - | - |
| 1788027348 | 20.56° C | 73% | 1014.2 hPa | 0 mm | - | - | - |
| 1788027165 | 20.56° C | 73% | 1014.2 hPa | 0 mm | - | - | - |
| 1788026987 | 20.56° C | 73% | 1014.2 hPa | 0 mm | - | - | - |
| 1788026940 | 20.56° C | 71% | 1014.1 hPa | 0.25 mm | - | - | - |
| 1788026865 | 20.56° C | 72% | 1014.2 hPa | 0 mm | - | - | - |
| 1788026627 | 20.56° C | 71% | 1014.1 hPa | 0.25 mm | - | - | - |
| 1788026565 | 20.56° C | 70% | 1014.1 hPa | 0.25 mm | - | - | - |
| 1788026265 | 20° C | 70% | 1014 hPa | 0.25 mm | - | - | - |
| 1788025965 | 20° C | 66% | 1013.8 hPa | 0.51 mm | - | - | - |
| 1788025907 | 20° C | 67% | 1013.9 hPa | 0.51 mm | - | - | - |
| 1788025796 | 20° C | 63% | 1013.9 hPa | 0.76 mm | - | - | - |
* Rain latest hour (hover to see other rain measurements)
** Current wind speed in m/s (hover to see current wind gust speed)